地図

経路データ

SID SEASON NUMBER BASIN SUBBASIN NAME ISO_TIME NATURE LAT LON WMO_WIND WMO_PRES WMO_AGENCY TRACK_TYPE DIST2LAND LANDFALL IFLAG USA_AGENCY USA_ATCF_ID USA_LAT USA_LON USA_RECORD USA_STATUS USA_WIND USA_PRES USA_SSHS USA_R34_NE USA_R34_SE USA_R34_SW USA_R34_NW USA_R50_NE USA_R50_SE USA_R50_SW USA_R50_NW USA_R64_NE USA_R64_SE USA_R64_SW USA_R64_NW USA_POCI USA_ROCI USA_RMW USA_EYE TOKYO_LAT TOKYO_LON TOKYO_GRADE TOKYO_WIND TOKYO_PRES TOKYO_R50_DIR TOKYO_R50_LONG TOKYO_R50_SHORT TOKYO_R30_DIR TOKYO_R30_LONG TOKYO_R30_SHORT TOKYO_LAND CMA_LAT CMA_LON CMA_CAT CMA_WIND CMA_PRES HKO_LAT HKO_LON HKO_CAT HKO_WIND HKO_PRES NEWDELHI_LAT NEWDELHI_LON NEWDELHI_GRADE NEWDELHI_WIND NEWDELHI_PRES NEWDELHI_CI NEWDELHI_DP NEWDELHI_POCI REUNION_LAT REUNION_LON REUNION_TYPE REUNION_WIND REUNION_PRES REUNION_TNUM REUNION_CI REUNION_RMW REUNION_R34_NE REUNION_R34_SE REUNION_R34_SW REUNION_R34_NW REUNION_R50_NE REUNION_R50_SE REUNION_R50_SW REUNION_R50_NW REUNION_R64_NE REUNION_R64_SE REUNION_R64_SW REUNION_R64_NW BOM_LAT BOM_LON BOM_TYPE BOM_WIND BOM_PRES BOM_TNUM BOM_CI BOM_RMW BOM_R34_NE BOM_R34_SE BOM_R34_SW BOM_R34_NW BOM_R50_NE BOM_R50_SE BOM_R50_SW BOM_R50_NW BOM_R64_NE BOM_R64_SE BOM_R64_SW BOM_R64_NW BOM_ROCI BOM_POCI BOM_EYE BOM_POS_METHOD BOM_PRES_METHOD NADI_LAT NADI_LON NADI_CAT NADI_WIND NADI_PRES WELLINGTON_LAT WELLINGTON_LON WELLINGTON_WIND WELLINGTON_PRES DS824_LAT DS824_LON DS824_STAGE DS824_WIND DS824_PRES TD9636_LAT TD9636_LON TD9636_STAGE TD9636_WIND TD9636_PRES TD9635_LAT TD9635_LON TD9635_WIND TD9635_PRES TD9635_ROCI NEUMANN_LAT NEUMANN_LON NEUMANN_CLASS NEUMANN_WIND NEUMANN_PRES MLC_LAT MLC_LON MLC_CLASS MLC_WIND MLC_PRES USA_GUST BOM_GUST BOM_GUST_PER REUNION_GUST REUNION_GUST_PER USA_SEAHGT USA_SEARAD_NE USA_SEARAD_SE USA_SEARAD_SW USA_SEARAD_NW STORM_SPEED STORM_DIR
1991274N08164 1991 73 WP MM PAT 1991-10-01 00:00:00 NR 8.00000 164.000 main 1816 1816 O_____________ jtwc_wp WP241991 8.00000 164.000 15 -1 4 323
1991274N08164 1991 73 WP MM PAT 1991-10-01 03:00:00 NR 8.14751 163.890 main 1819 1819 P_____________ WP241991 8.14751 163.890 15 -1 4 327
1991274N08164 1991 73 WP MM PAT 1991-10-01 06:00:00 NR 8.30000 163.800 main 1832 1832 O_____________ jtwc_wp WP241991 8.30000 163.800 15 -1 3 335
1991274N08164 1991 73 WP MM PAT 1991-10-01 09:00:00 NR 8.45749 163.742 main 1842 1842 P_____________ WP241991 8.45749 163.742 15 -1 3 343
1991274N08164 1991 73 WP MM PAT 1991-10-01 12:00:00 NR 8.60000 163.700 main 1850 1850 O_____________ jtwc_wp WP241991 8.60000 163.700 15 -1 3 339
1991274N08164 1991 73 WP MM PAT 1991-10-01 15:00:00 NR 8.70000 163.657 main 1859 1852 P_____________ WP241991 8.70000 163.657 15 -1 2 333
1991274N08164 1991 73 WP MM PAT 1991-10-01 18:00:00 NR 8.80000 163.600 main 1860 1860 O_____________ jtwc_wp WP241991 8.80000 163.600 15 -1 3 327
1991274N08164 1991 73 WP MM PAT 1991-10-01 21:00:00 NR 8.94251 163.500 main 1862 1862 P_____________ WP241991 8.94251 163.500 15 -1 4 327
1991274N08164 1991 73 WP MM PAT 1991-10-02 00:00:00 NR 9.10000 163.400 main 1872 1872 O_____________ jtwc_wp WP241991 9.10000 163.400 15 -1 3 334
1991274N08164 1991 73 WP MM PAT 1991-10-02 03:00:00 NR 9.25000 163.342 main 1873 1873 P_____________ WP241991 9.25000 163.342 15 -1 3 343
1991274N08164 1991 73 WP MM PAT 1991-10-02 06:00:00 NR 9.40000 163.300 main 1891 1891 O_____________ jtwc_wp WP241991 9.40000 163.300 15 -1 3 343
1991274N08164 1991 73 WP MM PAT 1991-10-02 09:00:00 NR 9.54250 163.250 main 1900 1900 P_____________ WP241991 9.54250 163.250 15 -1 3 343
1991274N08164 1991 73 WP MM PAT 1991-10-02 12:00:00 NR 9.70000 163.200 main 1911 1911 O_____________ jtwc_wp WP241991 9.70000 163.200 15 -1 4 345
1991274N08164 1991 73 WP MM PAT 1991-10-02 15:00:00 NR 9.88500 163.157 main 1928 1922 P_____________ WP241991 9.88500 163.157 15 -1 4 347
1991274N08164 1991 73 WP MM PAT 1991-10-02 18:00:00 NR 10.1000 163.100 main 1940 1940 O_____________ jtwc_wp WP241991 10.1000 163.100 15 -1 5 341
1991274N08164 1991 73 WP MM PAT 1991-10-02 21:00:00 NR 10.3425 163.000 main 1951 1951 P_____________ WP241991 10.3425 163.000 15 -1 5 338
1991274N08164 1991 73 WP MM PAT 1991-10-03 00:00:00 NR 10.6000 162.900 main 1970 1970 O_____________ jtwc_wp WP241991 10.6000 162.900 15 -1 5 343
1991274N08164 1991 73 WP MM PAT 1991-10-03 03:00:00 NR 10.8425 162.842 main 1981 1981 P_____________ WP241991 10.8425 162.842 17 -1 5 349
1991274N08164 1991 73 WP MM PAT 1991-10-03 06:00:00 NR 11.1000 162.800 main 2008 2008 O_____________ jtwc_wp WP241991 11.1000 162.800 20 -1 5 351
1991274N08164 1991 73 WP MM PAT 1991-10-03 09:00:00 NR 11.3775 162.757 main 2035 2028 P_____________ WP241991 11.3775 162.757 20 -1 6 351
1991274N08164 1991 73 WP MM PAT 1991-10-03 12:00:00 NR 11.7000 162.700 main 2056 2056 O_____________ jtwc_wp WP241991 11.7000 162.700 20 -1 7 349
1991274N08164 1991 73 WP MM PAT 1991-10-03 15:00:00 NR 12.0925 162.622 main 2086 2086 P_____________ WP241991 12.0925 162.622 22 -1 8 346
1991274N08164 1991 73 WP MM PAT 1991-10-03 18:00:00 NR 12.5000 162.500 main 2117 2117 O_____________ jtwc_wp WP241991 12.5000 162.500 25 -1 8 339
1991274N08164 1991 73 WP MM PAT 1991-10-03 21:00:00 NR 12.8725 162.315 main 2142 2142 P_____________ WP241991 12.8725 162.315 25 -1 8 331
1991274N08164 1991 73 WP MM PAT 1991-10-04 00:00:00 NR 13.2000 162.100 main 2159 2159 O_____________ jtwc_wp WP241991 13.2000 162.100 25 -1 7 328
1991274N08164 1991 73 WP MM PAT 1991-10-04 03:00:00 NR 13.4799 161.930 main 2176 2176 P_____________ WP241991 13.4799 161.930 25 -1 6 5
1991274N08164 1991 73 WP MM PAT 1991-10-04 06:00:00 TS 13.7600 162.160 1004 tokyo main 2222 2216 OO____________ jtwc_wp WP241991 13.7000 161.700 25 -1 14.0000 164.000 2 1004 0 0 0 4 5
1991274N08164 1991 73 WP MM PAT 1991-10-04 09:00:00 TS 13.9118 161.975 main 2219 2206 PP____________ WP241991 13.8650 161.337 27 -1 14.0055 163.250 2 1004 0 0 6 293
1991274N08164 1991 73 WP MM PAT 1991-10-04 12:00:00 TS 14.0000 161.586 1004 tokyo main 2206 2184 OO____________ jtwc_wp WP241991 14.0000 160.900 30 -1 14.0000 162.500 2 1004 0 0 0 9 280
1991274N08164 1991 73 WP MM PAT 1991-10-04 15:00:00 TS 14.0636 161.107 main 2189 2157 PP____________ WP241991 14.1424 160.465 30 -1 13.9848 161.750 2 1003 0 0 11 278
1991274N08164 1991 73 WP MM PAT 1991-10-04 18:00:00 TS 14.1500 160.500 1002 tokyo main 2167 2143 OO____________ jtwc_wp WP241991 14.3000 160.000 30 -1 14.0000 161.000 2 1002 0 0 0 12 280
1991274N08164 1991 73 WP MM PAT 1991-10-04 21:00:00 TS 14.2812 159.867 main 2147 2132 PP____________ WP241991 14.4923 159.522 30 -1 14.0701 160.213 2 1001 0 0 13 286
1991274N08164 1991 73 WP MM PAT 1991-10-05 00:00:00 TS 14.4889 159.256 1000 tokyo main 2138 2124 OO_O__________ jtwc_wp WP241991 14.7000 159.000 30 -1 14.2000 159.500 2 1000 0 0 0 14.8000 159.300 TD 25 1000 12 290
1991274N08164 1991 73 WP MM PAT 1991-10-05 03:00:00 TS 14.6984 158.685 main 2130 2119 PP_P__________ WP241991 14.9150 158.408 32 -1 14.3997 158.955 2 1000 0 0 14.8628 158.700 TD 27 1000 11 289
1991274N08164 1991 73 WP MM PAT 1991-10-05 06:00:00 TS 14.8636 158.136 1000 tokyo main 2125 2105 OO_O__________ jtwc_wp WP241991 15.1000 157.800 35 0 14.6000 158.500 2 1000 0 0 0 14.9000 158.100 TD 30 1000 11 283
1991274N08164 1991 73 WP MM PAT 1991-10-05 09:00:00 TS 14.9456 157.605 main 2105 2097 PP_P__________ WP241991 15.2223 157.242 35 0 14.7147 158.072 2 1000 0 0 14.8998 157.500 TD 32 997 10 277
1991274N08164 1991 73 WP MM PAT 1991-10-05 12:00:00 TS 14.9846 157.062 1000 tokyo main 2097 2076 OOOO__________ jtwc_wp WP241991 15.3000 156.700 35 0 14.8000 157.600 2 1000 0 0 0 14.8000 157.000 1 23 1002 14.9000 156.900 TS 35 995 11 275
1991274N08164 1991 73 WP MM PAT 1991-10-05 15:00:00 TS 15.0393 156.475 main 2076 2068 PPPP__________ WP241991 15.3649 156.142 37 0 14.8925 156.980 2 999 0 0 14.8903 156.495 1 26 1001 14.9349 156.292 TS 37 992 11 276
1991274N08164 1991 73 WP MM PAT 1991-10-05 18:00:00 TS 15.1067 155.893 35 998 tokyo main 2068 2060 OOOO__________ jtwc_wp WP241991 15.4000 155.600 40 0 15.0000 156.300 3 35 998 0 9 50 50 0 15.0000 156.000 1 29 1000 15.0000 155.700 TS 40 990 11 278
1991274N08164 1991 73 WP MM PAT 1991-10-05 21:00:00 TS 15.1942 155.346 main 2063 2057 PPPP__________ WP241991 15.3923 155.100 42 0 15.1499 155.643 3 37 996 0 9 60 60 15.1423 155.515 1 33 997 15.0924 155.128 TS 42 987 11 280
1991274N08164 1991 73 WP MM PAT 1991-10-06 00:00:00 TS 15.3000 154.800 40 994 tokyo main 2061 2055 OOOO__________ jtwc_wp WP241991 15.4000 154.600 45 0 15.3000 155.000 3 40 994 0 9 70 70 0 15.3000 155.000 2 38 995 15.2000 154.600 TS 45 985 11 281
1991274N08164 1991 73 WP MM PAT 1991-10-06 03:00:00 TS 15.4125 154.224 main 2059 2058 PPPP__________ WP241991 15.4925 154.043 47 0 15.4000 154.355 3 42 992 0 9 80 80 15.4577 154.378 2 38 995 15.2999 154.120 TS 50 980 11 282
1991274N08164 1991 73 WP MM PAT 1991-10-06 06:00:00 TS 15.5250 153.700 45 990 tokyo main 2062 2060 OOOO__________ jtwc_wp WP241991 15.6000 153.500 50 0 15.5000 153.800 3 45 990 0 9 90 90 0 15.6000 153.800 2 38 995 15.4000 153.700 STS 55 975 9 283
1991274N08164 1991 73 WP MM PAT 1991-10-06 09:00:00 TS 15.6286 153.284 main 2067 2065 PPPP__________ WP241991 15.6425 153.005 52 0 15.6573 153.398 3 47 987 0 9 95 95 15.7073 153.397 2 38 995 15.5074 153.335 STS 57 972 8 285
1991274N08164 1991 73 WP MM PAT 1991-10-06 12:00:00 TS 15.7250 152.950 50 985 tokyo main 2074 2072 OOOO__________ jtwc_wp WP241991 15.7000 152.600 55 0 15.8000 153.100 4 50 985 0 9 100 100 0 15.8000 153.100 2 38 995 15.6000 153.000 STS 60 970 6 286
1991274N08164 1991 73 WP MM PAT 1991-10-06 15:00:00 TS 15.8087 152.652 main 2081 2079 PPPP__________ WP241991 15.8424 152.298 57 0 15.8574 152.842 4 52 982 0 9 125 125 15.9074 152.842 2 43 990 15.6275 152.627 STS 62 967 6 288
1991274N08164 1991 73 WP MM PAT 1991-10-06 18:00:00 TS 15.9000 152.400 55 980 tokyo main 2090 2087 OOOO__________ jtwc_wp WP241991 16.0000 152.100 60 0 15.9000 152.600 4 55 980 9 30 30 9 150 150 0 16.0000 152.600 3 48 985 15.7000 152.300 T 65 965 5 293
1991274N08164 1991 73 WP MM PAT 1991-10-06 21:00:00 TS 16.0137 152.156 main 2095 2092 PPPP__________ WP241991 16.0999 151.985 65 1 15.9851 152.285 4 57 977 9 30 30 9 200 150 16.0426 152.285 3 53 980 15.9274 152.070 T 67 962 5 300
1991274N08164 1991 73 WP MM PAT 1991-10-07 00:00:00 TS 16.1500 151.950 60 975 tokyo main 2111 2106 OOOO__________ jtwc_wp WP241991 16.2000 151.900 70 1 16.1000 152.000 4 60 975 9 30 30 2 250 150 0 16.1000 152.000 3 58 975 16.2000 151.900 T 70 960 5 308
1991274N08164 1991 73 WP MM PAT 1991-10-07 03:00:00 TS 16.2937 151.781 main 2117 2114 PPPP__________ WP241991 16.3350 151.750 75 1 16.2199 151.820 4 62 972 9 35 35 2 250 150 16.2124 151.820 3 58 975 16.4075 151.735 T 72 957 4 319
1991274N08164 1991 73 WP MM PAT 1991-10-07 06:00:00 TS 16.4750 151.650 65 970 tokyo main 2136 2134 OOOO__________ jtwc_wp WP241991 16.5000 151.600 80 1 16.4000 151.700 5 65 970 9 40 40 1 250 150 0 16.4000 151.700 3 58 975 16.6000 151.600 T 75 955 5 331
1991274N08164 1991 73 WP MM PAT 1991-10-07 09:00:00 TS 16.7156 151.541 main 2153 2153 PPPP__________ WP241991 16.6850 151.492 87 2 16.6850 151.592 5 67 967 9 50 50 1 245 195 16.6850 151.592 3 63 970 16.8075 151.485 T 77 952 5 339
1991274N08164 1991 73 WP MM PAT 1991-10-07 12:00:00 TS 16.9750 151.450 70 965 tokyo main 2186 2184 OOOO__________ jtwc_wp WP241991 16.9000 151.400 95 2 17.0000 151.500 5 70 965 9 60 60 9 240 240 0 17.0000 151.500 4 68 965 17.0000 151.400 T 80 950 5 340
1991274N08164 1991 73 WP MM PAT 1991-10-07 15:00:00 TS 17.2094 151.355 main 2205 2203 PPPP__________ WP241991 17.1425 151.285 102 3 17.2725 151.393 5 75 960 9 70 70 9 245 245 17.2725 151.393 4 68 965 17.1500 151.350 T 82 947 5 340
1991274N08164 1991 73 WP MM PAT 1991-10-07 18:00:00 TS 17.4250 151.275 80 955 tokyo main 2225 2225 OOOO__________ jtwc_wp WP241991 17.4000 151.200 110 3 17.5000 151.300 5 80 955 9 80 80 9 250 250 0 17.5000 151.300 4 68 965 17.3000 151.300 ST 85 945 4 342
1991274N08164 1991 73 WP MM PAT 1991-10-07 21:00:00 TS 17.6125 151.216 main 2232 2212 PPPP__________ WP241991 17.6500 151.185 115 4 17.6575 151.242 5 82 950 9 85 85 9 255 255 17.6575 151.242 4 72 960 17.4850 151.193 ST 87 942 4 345
1991274N08164 1991 73 WP MM PAT 1991-10-08 00:00:00 TS 17.8000 151.175 85 945 tokyo main 2212 2187 OOOO__________ jtwc_wp WP241991 17.9000 151.200 120 4 17.8000 151.200 5 85 945 9 90 90 9 260 260 0 17.8000 151.200 4 77 955 17.7000 151.100 ST 90 940 4 351
1991274N08164 1991 73 WP MM PAT 1991-10-08 03:00:00 TS 17.9969 151.143 main 2187 2168 PPPP__________ WP241991 18.1425 151.207 122 4 17.9550 151.135 5 87 942 9 95 95 9 270 270 17.9550 151.143 4 82 950 17.9350 151.085 ST 90 940 5 356
1991274N08164 1991 73 WP MM PAT 1991-10-08 06:00:00 TS 18.2500 151.125 90 940 tokyo main 2158 2128 OOOO__________ jtwc_wp WP241991 18.4000 151.200 125 4 18.2000 151.100 5 90 940 9 100 100 9 280 280 0 18.2000 151.100 5 87 945 18.2000 151.100 ST 90 940 6 358
1991274N08164 1991 73 WP MM PAT 1991-10-08 09:00:00 TS 18.6156 151.138 main 2128 2089 PPPP__________ WP241991 18.6925 151.165 125 4 18.6425 151.165 5 90 940 9 105 105 9 280 280 18.6425 151.107 5 87 945 18.4850 151.115 ST 90 940 8 0
1991274N08164 1991 73 WP MM PAT 1991-10-08 12:00:00 TS 19.0000 151.125 90 940 tokyo main 2089 2055 OOOO__________ jtwc_wp WP241991 19.0000 151.100 125 4 19.1000 151.200 5 90 940 9 110 110 9 280 280 0 19.1000 151.100 5 87 945 18.8000 151.100 ST 90 940 7 352
1991274N08164 1991 73 WP MM PAT 1991-10-08 15:00:00 TS 19.2969 151.033 main 2055 2021 PPPP__________ WP241991 19.3000 151.015 122 4 19.3725 151.080 5 90 937 9 115 115 9 280 280 19.3725 151.015 5 87 945 19.1425 151.023 ST 90 940 6 340
1991274N08164 1991 73 WP MM PAT 1991-10-08 18:00:00 TS 19.5750 150.900 90 935 tokyo main 2021 1986 OOOO__________ jtwc_wp WP241991 19.6000 150.900 120 4 19.6000 150.900 5 90 935 9 120 120 9 280 280 0 19.6000 150.900 5 87 945 19.5000 150.900 ST 90 940 6 337
1991274N08164 1991 73 WP MM PAT 1991-10-08 21:00:00 TS 19.8819 150.772 main 1986 1947 PPPP__________ WP241991 19.9000 150.757 117 4 19.8850 150.757 5 92 930 9 125 125 9 290 290 19.8850 150.815 5 87 942 19.8575 150.758 ST 90 940 7 337
1991274N08164 1991 73 WP MM PAT 1991-10-09 00:00:00 TS 20.2000 150.625 95 925 tokyo main 1947 1913 OOOO__________ jtwc_wp WP241991 20.2000 150.600 115 4 20.2000 150.600 5 95 925 9 130 130 9 300 300 0 20.2000 150.700 5 87 940 20.2000 150.600 ST 90 940 7 336
1991274N08164 1991 73 WP MM PAT 1991-10-09 03:00:00 TS 20.5381 150.458 main 1913 1873 PPPP__________ WP241991 20.5075 150.450 112 3 20.5650 150.400 5 95 925 9 130 130 9 300 300 20.5650 150.523 5 92 935 20.5150 150.457 ST 90 940 7 333
1991274N08164 1991 73 WP MM PAT 1991-10-09 06:00:00 TS 20.8500 150.275 95 925 tokyo main 1864 1834 OOOO__________ jtwc_wp WP241991 20.8000 150.300 110 3 20.9000 150.200 5 95 925 9 130 130 9 300 300 0 20.9000 150.300 5 97 930 20.8000 150.300 ST 90 940 7 327
1991274N08164 1991 73 WP MM PAT 1991-10-09 09:00:00 TS 21.0881 150.078 main 1834 1804 PPPP__________ WP241991 21.0575 150.142 107 3 21.1150 150.042 5 95 925 9 130 130 9 300 300 21.1151 150.035 5 97 930 21.0650 150.093 ST 90 940 6 322
1991274N08164 1991 73 WP MM PAT 1991-10-09 12:00:00 TS 21.3000 149.900 95 925 tokyo main 1804 1780 OOOO__________ jtwc_wp WP241991 21.3000 150.000 105 3 21.3000 149.900 5 95 925 9 130 130 9 300 300 0 21.3000 149.800 5 97 930 21.3000 149.900 ST 90 940 5 327
1991274N08164 1991 73 WP MM PAT 1991-10-09 15:00:00 TS 21.5375 149.763 main 1780 1745 PPPP__________ WP241991 21.5500 149.885 102 3 21.5500 149.728 5 95 927 9 130 130 9 300 300 21.5424 149.662 5 97 930 21.5075 149.777 ST 90 940 5 336
1991274N08164 1991 73 WP MM PAT 1991-10-09 18:00:00 TS 21.7750 149.675 95 930 tokyo main 1745 1721 OOOO__________ jtwc_wp WP241991 21.8000 149.800 100 3 21.8000 149.600 5 95 930 9 130 130 9 300 300 0 21.8000 149.600 5 97 930 21.7000 149.700 ST 90 940 5 346
1991274N08164 1991 73 WP MM PAT 1991-10-09 21:00:00 TS 21.9962 149.633 main 1721 1702 PPPP__________ WP241991 22.0500 149.735 100 3 22.0000 149.577 5 95 930 9 125 125 9 285 285 22.0500 149.585 5 97 930 21.8850 149.635 ST 90 940 5 356
1991274N08164 1991 73 WP MM PAT 1991-10-10 00:00:00 TS 22.2250 149.625 95 930 tokyo main 1702 1673 OOOO__________ jtwc_wp WP241991 22.3000 149.700 100 3 22.2000 149.600 5 95 930 9 120 120 9 270 270 0 22.3000 149.600 5 97 930 22.1000 149.600 ST 90 940 5 358
1991274N08164 1991 73 WP MM PAT 1991-10-10 03:00:00 TS 22.4706 149.606 main 1673 1654 PPPP__________ WP241991 22.5350 149.678 97 3 22.4275 149.585 5 92 932 9 120 120 9 270 270 22.5425 149.585 5 97 930 22.3775 149.578 ST 90 940 5 0
1991274N08164 1991 73 WP MM PAT 1991-10-10 06:00:00 TS 22.7500 149.625 90 935 tokyo main 1645 1631 OOOO__________ jtwc_wp WP241991 22.8000 149.700 95 2 22.7000 149.600 5 90 935 9 120 120 9 270 270 0 22.8000 149.600 5 97 930 22.7000 149.600 ST 90 940 6 9
1991274N08164 1991 73 WP MM PAT 1991-10-10 09:00:00 TS 23.0650 149.703 main 1622 1599 PPPP__________ WP241991 23.1350 149.777 92 2 23.0200 149.678 5 87 937 9 120 120 9 270 270 23.0700 149.678 5 92 935 23.0350 149.678 ST 85 945 7 15
1991274N08164 1991 73 WP MM PAT 1991-10-10 12:00:00 TS 23.4250 149.825 85 940 tokyo main 1599 1567 OOOO__________ jtwc_wp WP241991 23.5000 149.900 90 2 23.4000 149.800 5 85 940 9 120 120 9 270 270 0 23.4000 149.800 5 87 940 23.4000 149.800 T 80 950 8 17
1991274N08164 1991 73 WP MM PAT 1991-10-10 15:00:00 TS 23.8300 149.958 main 1572 1541 PPPP__________ WP241991 23.8350 150.035 87 2 23.8500 149.935 5 82 945 9 120 120 9 270 270 23.8425 149.928 5 82 945 23.7925 149.935 T 75 955 9 18
1991274N08164 1991 73 WP MM PAT 1991-10-10 18:00:00 TS 24.2500 150.125 80 950 tokyo main 1532 1517 OOOO__________ jtwc_wp WP241991 24.2000 150.200 85 2 24.3000 150.100 5 80 950 9 120 120 9 270 270 0 24.3000 150.100 4 77 950 24.2000 150.100 T 70 960 8 22
1991274N08164 1991 73 WP MM PAT 1991-10-10 21:00:00 TS 24.6056 150.312 main 1517 1493 PPPP__________ WP241991 24.6124 150.378 82 1 24.6198 150.263 5 77 955 9 100 100 9 235 235 24.6199 150.321 4 77 952 24.5700 150.285 T 72 960 9 26
1991274N08164 1991 73 WP MM PAT 1991-10-11 00:00:00 TS 25.0250 150.550 75 960 tokyo main 1499 1467 OOOO__________ jtwc_wp WP241991 25.1000 150.600 80 1 25.0000 150.500 5 75 960 9 80 80 9 200 200 0 25.0000 150.600 4 77 955 25.0000 150.500 T 75 960 11 28
1991274N08164 1991 73 WP MM PAT 1991-10-11 03:00:00 TS 25.6090 150.893 main 1467 1437 PPPP__________ WP241991 25.6626 150.907 77 1 25.6054 150.929 5 75 960 9 80 80 9 200 200 25.6053 150.979 4 72 960 25.5626 150.757 T 75 957 14 25
1991274N08164 1991 73 WP MM PAT 1991-10-11 06:00:00 TS 26.2750 151.200 75 960 tokyo main 1429 1388 OOOO__________ jtwc_wp WP241991 26.3000 151.200 75 1 26.3000 151.300 5 75 960 9 80 80 9 200 200 0 26.3000 151.300 4 68 965 26.2000 151.000 T 75 955 13 17
1991274N08164 1991 73 WP MM PAT 1991-10-11 09:00:00 TS 26.8905 151.328 main 1388 1340 PPPP__________ WP241991 26.9550 151.395 75 1 26.9048 151.354 5 72 962 9 80 80 9 200 200 26.9049 151.396 4 68 965 26.7975 151.166 T 75 955 13 7
1991274N08164 1991 73 WP MM PAT 1991-10-11 12:00:00 TS 27.6000 151.375 70 965 tokyo main 1340 1278 OOOO__________ jtwc_wp WP241991 27.7000 151.500 75 1 27.6000 151.300 5 70 965 9 80 80 9 200 200 0 27.6000 151.400 4 68 965 27.5000 151.300 T 75 955 16 3
1991274N08164 1991 73 WP MM PAT 1991-10-11 15:00:00 TS 28.4869 151.436 main 1271 1214 PPPP__________ WP241991 28.5550 151.516 72 1 28.4900 151.328 5 70 965 9 80 80 9 200 200 28.4975 151.435 4 68 965 28.4051 151.465 T 75 955 19 3
1991274N08164 1991 73 WP MM PAT 1991-10-11 18:00:00 TS 29.4750 151.500 70 965 tokyo main 1207 1156 OOOO__________ jtwc_wp WP241991 29.5000 151.500 70 1 29.5000 151.400 5 70 965 9 80 80 9 200 200 0 29.5000 151.500 4 68 965 29.4000 151.600 T 75 955 20 4
1991274N08164 1991 73 WP MM PAT 1991-10-11 21:00:00 TS 30.4544 151.587 main 1150 1107 PPPP__________ WP241991 30.4700 151.521 67 1 30.5350 151.535 5 70 965 9 80 80 9 200 200 30.4775 151.635 4 68 965 30.3350 151.658 T 75 955 20 5
1991274N08164 1991 73 WP MM PAT 1991-10-12 00:00:00 TS 31.4750 151.700 70 965 tokyo main 1101 1062 OOOO__________ jtwc_wp WP241991 31.5000 151.600 65 1 31.6000 151.700 5 70 965 9 80 80 9 200 200 0 31.5000 151.800 4 68 965 31.3000 151.700 T 75 955 21 5
1991274N08164 1991 73 WP MM PAT 1991-10-12 03:00:00 TS 32.5292 151.801 main 1062 1036 PPPP__________ WP241991 32.5924 151.748 65 1 32.6422 151.807 5 70 965 9 80 80 9 220 220 32.5847 151.907 4 68 965 32.2973 151.742 T 72 957 22 7
1991274N08164 1991 73 WP MM PAT 1991-10-12 06:00:00 TS 33.6250 152.000 70 965 tokyo main 1039 1033 OOOO__________ jtwc_wp WP241991 33.7000 152.000 65 1 33.7000 152.000 5 70 965 9 80 80 9 240 240 0 33.7000 152.100 4 68 965 33.4000 151.900 T 70 960 23 12
1991274N08164 1991 73 WP MM PAT 1991-10-12 09:00:00 TS 34.7417 152.365 main 1047 1025 PPPP__________ WP241991 34.7499 152.349 62 0 34.7699 152.376 5 70 965 9 80 80 9 240 240 34.7774 152.476 4 68 965 34.6698 152.261 T 65 965 24 18
1991274N08164 1991 73 WP MM PAT 1991-10-12 12:00:00 TS 35.9000 152.875 70 965 tokyo main 1028 952 OOOO__________ jtwc_wp WP241991 35.8000 152.800 60 0 35.9000 152.900 5 70 965 9 80 80 9 240 240 0 35.9000 153.000 4 68 965 36.0000 152.800 STS 60 970 26 21
1991274N08164 1991 73 WP MM PAT 1991-10-12 15:00:00 TS 37.1201 153.486 main 958 888 PPPP__________ WP241991 36.8846 153.300 57 0 37.1428 153.534 5 67 967 9 75 75 9 240 240 37.1579 153.641 4 63 970 37.2952 153.469 STS 55 972 26 23
1991274N08164 1991 73 WP MM PAT 1991-10-12 18:00:00 TS 38.3357 154.164 65 970 tokyo main 892 801 OOOO__________ jtwc_wp WP241991 38.0000 153.900 55 0 38.4000 154.200 5 65 970 9 70 70 9 240 240 0 38.4000 154.300 3 58 975 38.5000 154.200 STS 50 975 26 23
1991274N08164 1991 73 WP MM PAT 1991-10-12 21:00:00 TS 39.4801 154.744 main 791 725 PPPP__________ WP241991 39.1437 154.612 55 0 39.6009 154.710 5 62 972 9 60 60 9 220 220 39.4937 154.782 3 58 975 39.5477 154.871 STS 45 980 24 22
1991274N08164 1991 73 WP MM PAT 1991-10-13 00:00:00 TS 40.5600 155.330 60 975 tokyo main 716 676 OOOO__________ jtwc_wp WP241991 40.3000 155.400 55 0 40.7000 155.300 4 60 975 9 50 50 9 200 200 0 40.5000 155.300 3 58 975 40.5000 155.500 TS 40 985 23 26
1991274N08164 1991 73 WP MM PAT 1991-10-13 03:00:00 TS 41.5700 156.108 main 673 659 _PP___________ WP241991 -1 41.6606 156.197 4 60 977 9 45 45 9 200 200 41.4794 156.019 3 58 975 TS 23 34
1991274N08164 1991 73 WP MM PAT 1991-10-13 06:00:00 MX 42.4500 157.050 60 980 tokyo main 664 658 _OO___________ -1 42.5000 157.200 4 60 980 9 40 40 9 200 200 0 42.4000 156.900 9 58 975 22 38
1991274N08164 1991 73 WP MM PAT 1991-10-13 09:00:00 MX 43.2772 157.936 main 667 667 _PP___________ -1 43.2316 158.027 4 983 9 9 43.3228 157.846 9 53 980 21 42
1991274N08164 1991 73 WP MM PAT 1991-10-13 12:00:00 ET 44.0500 159.000 986 tokyo main 707 685 _OO___________ -1 44.0000 159.000 6 986 0 0 0 44.1000 159.000 9 48 985 24 50
1991274N08164 1991 73 WP MM PAT 1991-10-13 15:00:00 ET 44.8220 160.456 main 691 679 _PP___________ -1 45.0412 160.475 6 986 0 0 44.6029 160.438 9 48 985 26 54
1991274N08164 1991 73 WP MM PAT 1991-10-13 18:00:00 ET 45.5714 162.000 986 tokyo main 682 682 _OO___________ -1 46.0000 162.000 6 986 0 0 0 45.0000 162.000 9 48 985 24 55
1991274N08164 1991 73 WP MM PAT 1991-10-13 21:00:00 ET 46.2052 163.228 main 697 697 _PP___________ -1 46.5716 163.084 6 987 0 0 45.4725 163.515 9 43 987 19 53
1991274N08164 1991 73 WP MM PAT 1991-10-14 00:00:00 ET 46.7500 164.250 988 tokyo main 705 680 _OO___________ -1 47.0000 164.000 6 988 0 0 0 46.0000 165.000 9 38 990 17 43
1991274N08164 1991 73 WP MM PAT 1991-10-14 03:00:00 ET 47.4781 164.967 main 682 680 _P____________ -1 47.4781 164.967 6 988 0 0 9 17 43
1991274N08164 1991 73 WP MM PAT 1991-10-14 06:00:00 ET 48.0000 166.000 988 tokyo main 701 _O____________ -1 48.0000 166.000 6 988 0 0 0 17 53

デジタル台風データ・検索

IBTrACS Databaseについて

本データベースは、米国NOAAが公開する1842年以降の世界の熱帯低気圧のベストトラックデータアーカイブInternational Best Track Archive for Climate Stewardship (IBTrACS)を、ウェブで閲覧しやすい形式に変換したものです。

最終更新日:2021-12-06